Share

Aberdeen, SD

Simmons (KSDABERD3) Elev 1299 ft | 45.45 °N, 98.49 °W | Change Station

Current weather conditions updated 10 minutes ago

Overcast
Overcast
36.9 °F
Feels Like 32 °F
N
5.8
Wind Variable Wind from SSE
Sunrise 6:44 AM
Sunset 8:22 PM
Moon Waning Gibbous

Tomorrow is forecast to be Much Warmer than today.

Pressure 30.25 in
Visibility 10.0 miles
Clouds Few 6500 ft
Overcast 7500 ft
Windchill 32 °F
Dew Point 24 °F
Humidity 58%
Rainfall 0.00 in
Snow Depth Not available.
UV 0 out of 16
Pollen 7.60 out of 12
Air Quality Not available.
Flu Activity Sporadic
METAR KABR 180453Z AUTO 12008KT 10SM FEW065 OVC075 02/M07 A3021 RMK AO2 SLP244 T00221067

More Conditions Fewer Conditions

Pressure 30.25 in
Visibility 10.0 miles
Clouds Few 6500 ft
Overcast 7500 ft
Windchill 32 °F
Dew Point 24 °F
Humidity 58%
Rainfall 0.00 in
Snow Depth Not available.
UV 0 out of 16
Pollen 7.60 out of 12
Air Quality Not available.
Flu Activity Sporadic
METAR KABR 180453Z AUTO 12008KT 10SM FEW065 OVC075 02/M07 A3021 RMK AO2 SLP244 T00221067

More Conditions Fewer Conditions

10-Day Forecast

Almanac

Astronomy

Apr. 17, 2014 Rise Set
Actual Time 6:44 AM CDT 8:22 PM CDT
Civil Twilight 6:13 AM CDT 8:54 PM CDT
Nautical Twilight 5:36 AM CDT 9:32 PM CDT
Astronomical Twilight 4:55 AM CDT 10:13 PM CDT
Moon 11:16 PM CDT (4/17) 8:12 AM CDT (4/17)
Length of Visible Light 14h 40m
Length of Day
13h 37m
Tomorrow will be 3m 1s longer.
Waning Gibbous, 90% of the Moon is Illuminated
Apr 18
Waning Gibbous
Apr 22
Last Quarter
Apr 29
New
May 6
First Quarter
May 14
Full

Yesterday's Extremes

State Highs State Lows

Community

  • SUNRISE THROUGH THE TREES.
    SUNRISE THROUGH THE TREES.
  • Dog Wood Blossoms
    Dog Wood Blossoms
  • Morning Light
    Morning Light
  • New Day
    New Day
  • Lake Michigan Sunrise
    Lake Michigan Sunrise

WunderPhotos

Upload Photos

1,702,258 photos uploaded!

WunderBlogs® & News

Nearby

Snow Depth

Station Depth Elevation
North Rapid Creek 22 in 6130 ft
Blind Park 23 in 6890 ft

Coastal Water Temperatures

Place Temperature
No Stations Reporting

Earthquake Activity

City Distance Mag. Time & Date
No recent earthquake activity has been reported nearby.
Minimum magnitude displayed is 2.5.

Nearby Weather Stations

Station Location Temp. Windchill Dew Point Humidity Wind Precip. Elev Updated Type
Simmons, Aberdeen, SD 36.9 °F 32 °F 24 °F 58% SSE  at  5.8 mph - / hr 1299 ft 11:49 PM CDT Normal
Willow Creek Lake, Frederick, SD 36.9 °F 31 °F 22 °F 56% WNW  at  7.0 mph 0.00 in / hr 1421 ft 10:18 PM CDT Normal
Groton, SD 36.9 °F 33 °F 24 °F 59% ESE  at  5.0 mph 0.00 in / hr 1302 ft 11:55 PM CDT Normal

Show More Stations Show Fewer Stations

What do you think?

We're not finished. Please let us know what you like, what you don't like, and what you are still missing.